createdAt,value
2019-05-06T00:06:28.897Z,99274.19
2019-05-06T00:16:29.763Z,99271.91
2019-05-06T00:26:30.652Z,99272.70
2019-05-06T00:36:31.343Z,99276.09
2019-05-06T00:46:34.249Z,99275.52
2019-05-06T00:56:34.643Z,99283.29
2019-05-06T01:06:35.321Z,99290.55
2019-05-06T01:16:36.337Z,99287.86
2019-05-06T01:26:38.009Z,99293.64
2019-05-06T01:36:38.654Z,99290.03
2019-05-06T01:46:39.373Z,99291.13
2019-05-06T01:56:40.029Z,99293.94
2019-05-06T02:06:40.893Z,99305.27
2019-05-06T02:16:43.647Z,99315.84
2019-05-06T02:26:44.535Z,99322.78
2019-05-06T02:36:45.833Z,99322.59
2019-05-06T02:46:46.870Z,99323.79
2019-05-06T02:56:47.532Z,99317.74
2019-05-06T03:06:48.465Z,99317.86
2019-05-06T03:16:49.318Z,99321.17
2019-05-06T03:26:56.122Z,99314.36
2019-05-06T03:36:56.287Z,99315.91
2019-05-06T03:46:55.797Z,99329.88
2019-05-06T03:56:56.853Z,99317.36
2019-05-06T04:06:58.916Z,99337.57
2019-05-06T04:17:00.085Z,99341.91
2019-05-06T04:27:24.454Z,99347.74
2019-05-06T04:37:25.108Z,99344.04
2019-05-06T04:47:25.766Z,99359.19
2019-05-06T04:57:26.782Z,99360.14
2019-05-06T05:07:27.679Z,99375.98
2019-05-06T05:17:28.301Z,99392.16
2019-05-06T05:27:29.295Z,99389.25
2019-05-06T05:37:30.268Z,99400.08
2019-05-06T05:47:32.987Z,99402.12
2019-05-06T05:57:33.873Z,99418.14
2019-05-06T06:07:35.587Z,99414.77
2019-05-06T06:17:36.241Z,99413.31
2019-05-06T06:27:37.222Z,99411.79
2019-05-06T06:37:39.346Z,99418.25
2019-05-06T06:47:40.015Z,99421.85
2019-05-06T06:57:42.414Z,99428.02
2019-05-06T07:07:47.339Z,99418.59
2019-05-06T07:17:46.092Z,99425.16
2019-05-06T07:27:46.995Z,99413.83
2019-05-06T07:37:47.744Z,99428.72
2019-05-06T07:47:48.410Z,99429.92
2019-05-06T07:57:50.625Z,99419.33
2019-05-06T08:07:55.062Z,99426.41
2019-05-06T08:17:54.807Z,99425.29
2019-05-06T08:27:55.707Z,99428.26
2019-05-06T08:37:56.377Z,99422.70
2019-05-06T08:47:57.278Z,99426.30
2019-05-06T08:57:58.246Z,99421.75
2019-05-06T09:07:58.939Z,99418.97
2019-05-06T09:17:59.823Z,99401.32
2019-05-06T09:28:02.517Z,99387.56
2019-05-06T09:38:03.451Z,99382.22
2019-05-06T09:48:04.514Z,99382.92
2019-05-06T09:58:05.197Z,99373.88
2019-05-06T10:08:06.149Z,99370.78
2019-05-06T10:18:06.959Z,99376.06
2019-05-06T10:28:07.942Z,99383.97
2019-05-06T10:38:12.609Z,99379.94
2019-05-06T10:48:13.575Z,99372.45
2019-05-06T10:58:14.220Z,99366.63
2019-05-06T11:08:15.180Z,99355.23
2019-05-06T11:18:15.814Z,99348.75
2019-05-06T11:28:16.721Z,99335.52
2019-05-06T11:38:18.101Z,99341.80
2019-05-06T11:48:19.032Z,99333.20
2019-05-06T11:58:22.274Z,99335.24
2019-05-06T12:08:22.657Z,99331.56
2019-05-06T12:18:23.382Z,99325.45
2019-05-06T12:28:24.290Z,99325.52
2019-05-06T12:38:30.301Z,99323.77
2019-05-06T12:48:27.633Z,99312.94
2019-05-06T12:58:28.606Z,99311.98
2019-05-06T13:08:51.719Z,99314.03
2019-05-06T13:18:32.825Z,99302.63
2019-05-06T13:28:33.764Z,99306.91
2019-05-06T13:38:34.742Z,99308.41
2019-05-06T13:48:35.489Z,99306.27
2019-05-06T13:58:36.386Z,99314.20
2019-05-06T14:08:37.286Z,99312.34
2019-05-06T14:18:38.014Z,99311.62
2019-05-06T14:28:38.963Z,99303.48
2019-05-06T14:38:39.694Z,99308.14
2019-05-06T14:48:40.410Z,99312.83
2019-05-06T14:58:42.824Z,99318.48
2019-05-06T15:08:43.618Z,99313.98
2019-05-06T15:18:44.529Z,99316.52
2019-05-06T15:28:47.053Z,99309.00
2019-05-06T15:38:48.059Z,99309.46
2019-05-06T15:48:48.951Z,99300.78
2019-05-06T15:58:49.905Z,99318.06
2019-05-06T16:08:52.632Z,99306.35
2019-05-06T16:18:53.765Z,99305.67
2019-05-06T16:28:54.762Z,99301.73
2019-05-06T16:38:55.706Z,99291.58
2019-05-06T16:48:56.635Z,99284.27
2019-05-06T16:58:57.574Z,99287.86
2019-05-06T17:08:58.600Z,99296.16
2019-05-06T17:18:59.578Z,99281.14
2019-05-06T17:29:02.574Z,99280.44
2019-05-06T17:39:06.220Z,99284.94
2019-05-06T17:49:06.932Z,99275.08
2019-05-06T17:59:07.935Z,99282.81
2019-05-06T18:09:08.929Z,99294.25
2019-05-06T18:19:12.464Z,99293.52
2019-05-06T18:29:12.786Z,99292.39
2019-05-06T18:39:13.406Z,99289.06
2019-05-06T18:49:14.124Z,99294.02
2019-05-06T18:59:15.117Z,99294.99
2019-05-06T19:09:16.136Z,99306.58
2019-05-06T19:19:17.626Z,99317.52
2019-05-06T19:29:18.286Z,99329.52
2019-05-06T19:39:19.194Z,99335.30
2019-05-06T19:49:21.678Z,99340.53
2019-05-06T19:59:23.037Z,99341.61
2019-05-06T20:09:23.757Z,99343.36
2019-05-06T20:19:30.807Z,99348.86
2019-05-06T20:29:27.451Z,99344.17
2019-05-06T20:39:29.447Z,99348.17
2019-05-06T20:49:30.122Z,99346.97
2019-05-06T20:59:32.212Z,99349.42
2019-05-06T21:09:33.208Z,99343.11
2019-05-06T21:19:34.124Z,99347.51
2019-05-06T21:29:35.022Z,99333.44
2019-05-06T21:39:35.995Z,99331.67
2019-05-06T21:49:42.522Z,99319.34
2019-05-06T21:59:43.409Z,99322.20
2019-05-06T22:09:44.489Z,99318.63
2019-05-06T22:19:45.129Z,99312.78
2019-05-06T22:29:45.952Z,99304.72
2019-05-06T22:39:46.634Z,99306.28
2019-05-06T22:49:47.314Z,99299.33
2019-05-06T22:59:48.230Z,99304.02
2019-05-06T23:09:49.145Z,99296.05
2019-05-06T23:19:49.766Z,99296.09
2019-05-06T23:29:52.647Z,99283.34
2019-05-06T23:40:33.016Z,99280.98
2019-05-06T23:51:12.734Z,99278.84
